sensor_id;sensor_type;location;lat;lon;timestamp;P1;durP1;ratioP1;P2;durP2;ratioP2
59858;SDS011;45734;53.648;9.566;2023-03-01T00:02:34;0.10;;;0.10;;
59858;SDS011;45734;53.648;9.566;2023-03-01T00:07:34;0.10;;;0.10;;
59858;SDS011;45734;53.648;9.566;2023-03-01T00:12:34;0.13;;;0.13;;
59858;SDS011;45734;53.648;9.566;2023-03-01T00:17:36;0.10;;;0.10;;
59858;SDS011;45734;53.648;9.566;2023-03-01T00:22:36;0.17;;;0.17;;
59858;SDS011;45734;53.648;9.566;2023-03-01T00:27:37;0.10;;;0.10;;
59858;SDS011;45734;53.648;9.566;2023-03-01T00:32:37;0.10;;;0.10;;
59858;SDS011;45734;53.648;9.566;2023-03-01T00:37:37;0.20;;;0.20;;
59858;SDS011;45734;53.648;9.566;2023-03-01T00:42:38;0.20;;;0.20;;
59858;SDS011;45734;53.648;9.566;2023-03-01T00:47:38;0.10;;;0.10;;
59858;SDS011;45734;53.648;9.566;2023-03-01T00:52:38;0.20;;;0.20;;
59858;SDS011;45734;53.648;9.566;2023-03-01T00:57:39;0.03;;;0.03;;
59858;SDS011;45734;53.648;9.566;2023-03-01T01:02:39;0.10;;;0.10;;
59858;SDS011;45734;53.648;9.566;2023-03-01T01:07:39;0.10;;;0.10;;
59858;SDS011;45734;53.648;9.566;2023-03-01T01:12:39;0.10;;;0.10;;
59858;SDS011;45734;53.648;9.566;2023-03-01T01:17:40;0.20;;;0.20;;
59858;SDS011;45734;53.648;9.566;2023-03-01T01:22:40;0.10;;;0.10;;
59858;SDS011;45734;53.648;9.566;2023-03-01T01:27:41;0.10;;;0.10;;
59858;SDS011;45734;53.648;9.566;2023-03-01T01:32:41;0.10;;;0.10;;
59858;SDS011;45734;53.648;9.566;2023-03-01T01:37:41;0.10;;;0.10;;
59858;SDS011;45734;53.648;9.566;2023-03-01T01:42:41;0.10;;;0.10;;
59858;SDS011;45734;53.648;9.566;2023-03-01T01:47:42;0.10;;;0.10;;
59858;SDS011;45734;53.648;9.566;2023-03-01T01:52:42;0.10;;;0.10;;
59858;SDS011;45734;53.648;9.566;2023-03-01T01:57:43;0.10;;;0.10;;
59858;SDS011;45734;53.648;9.566;2023-03-01T02:02:47;0.10;;;0.10;;
59858;SDS011;45734;53.648;9.566;2023-03-01T02:07:51;0.10;;;0.10;;
59858;SDS011;45734;53.648;9.566;2023-03-01T02:12:53;0.17;;;0.17;;
59858;SDS011;45734;53.648;9.566;2023-03-01T02:17:56;0.10;;;0.10;;
59858;SDS011;45734;53.648;9.566;2023-03-01T02:22:56;0.15;;;0.15;;
59858;SDS011;45734;53.648;9.566;2023-03-01T02:33:00;0.20;;;0.20;;
59858;SDS011;45734;53.648;9.566;2023-03-01T02:38:03;0.20;;;0.20;;
59858;SDS011;45734;53.648;9.566;2023-03-01T02:43:08;0.30;;;0.30;;
59858;SDS011;45734;53.648;9.566;2023-03-01T02:48:11;0.15;;;0.15;;
59858;SDS011;45734;53.648;9.566;2023-03-01T02:58:19;0.20;;;0.20;;
59858;SDS011;45734;53.648;9.566;2023-03-01T03:03:20;0.10;;;0.10;;
59858;SDS011;45734;53.648;9.566;2023-03-01T03:08:21;0.10;;;0.10;;
59858;SDS011;45734;53.648;9.566;2023-03-01T03:13:23;0.10;;;0.10;;
59858;SDS011;45734;53.648;9.566;2023-03-01T03:18:28;0.20;;;0.20;;
59858;SDS011;45734;53.648;9.566;2023-03-01T03:23:28;0.10;;;0.10;;
59858;SDS011;45734;53.648;9.566;2023-03-01T03:28:30;0.10;;;0.10;;
59858;SDS011;45734;53.648;9.566;2023-03-01T03:33:34;0.10;;;0.10;;
59858;SDS011;45734;53.648;9.566;2023-03-01T03:38:34;0.20;;;0.20;;
59858;SDS011;45734;53.648;9.566;2023-03-01T03:43:35;0.20;;;0.20;;
59858;SDS011;45734;53.648;9.566;2023-03-01T03:48:40;0.10;;;0.10;;
59858;SDS011;45734;53.648;9.566;2023-03-01T03:53:45;0.30;;;0.30;;
59858;SDS011;45734;53.648;9.566;2023-03-01T03:58:45;0.30;;;0.30;;
59858;SDS011;45734;53.648;9.566;2023-03-01T04:03:46;0.20;;;0.20;;
59858;SDS011;45734;53.648;9.566;2023-03-01T04:08:46;0.20;;;0.20;;
59858;SDS011;45734;53.648;9.566;2023-03-01T04:13:51;0.15;;;0.15;;
59858;SDS011;45734;53.648;9.566;2023-03-01T04:18:53;0.20;;;0.20;;
59858;SDS011;45734;53.648;9.566;2023-03-01T04:23:53;0.15;;;0.15;;
59858;SDS011;45734;53.648;9.566;2023-03-01T04:28:54;0.10;;;0.10;;
59858;SDS011;45734;53.648;9.566;2023-03-01T04:33:55;0.20;;;0.20;;
59858;SDS011;45734;53.648;9.566;2023-03-01T04:38:56;0.20;;;0.20;;
59858;SDS011;45734;53.648;9.566;2023-03-01T04:43:56;0.10;;;0.10;;
59858;SDS011;45734;53.648;9.566;2023-03-01T04:48:59;0.10;;;0.10;;
59858;SDS011;45734;53.648;9.566;2023-03-01T04:54:00;0.00;;;0.00;;
59858;SDS011;45734;53.648;9.566;2023-03-01T04:59:00;0.10;;;0.10;;
59858;SDS011;45734;53.648;9.566;2023-03-01T05:04:00;0.15;;;0.15;;
59858;SDS011;45734;53.648;9.566;2023-03-01T05:09:02;0.20;;;0.20;;
59858;SDS011;45734;53.648;9.566;2023-03-01T05:14:03;0.15;;;0.15;;
59858;SDS011;45734;53.648;9.566;2023-03-01T05:19:04;0.10;;;0.10;;
59858;SDS011;45734;53.648;9.566;2023-03-01T05:24:22;0.10;;;0.10;;
59858;SDS011;45734;53.648;9.566;2023-03-01T05:29:23;0.10;;;0.10;;
59858;SDS011;45734;53.648;9.566;2023-03-01T05:34:26;0.13;;;0.13;;
59858;SDS011;45734;53.648;9.566;2023-03-01T05:39:29;0.20;;;0.20;;
59858;SDS011;45734;53.648;9.566;2023-03-01T05:44:29;0.10;;;0.10;;
59858;SDS011;45734;53.648;9.566;2023-03-01T05:49:31;0.10;;;0.10;;
59858;SDS011;45734;53.648;9.566;2023-03-01T05:54:31;0.20;;;0.20;;
59858;SDS011;45734;53.648;9.566;2023-03-01T05:59:33;0.20;;;0.20;;
59858;SDS011;45734;53.648;9.566;2023-03-01T06:04:33;0.00;;;0.00;;
59858;SDS011;45734;53.648;9.566;2023-03-01T06:09:33;0.10;;;0.10;;
59858;SDS011;45734;53.648;9.566;2023-03-01T06:14:34;0.28;;;0.28;;
59858;SDS011;45734;53.648;9.566;2023-03-01T06:19:34;0.10;;;0.10;;
59858;SDS011;45734;53.648;9.566;2023-03-01T06:24:34;0.20;;;0.20;;
59858;SDS011;45734;53.648;9.566;2023-03-01T06:29:35;0.10;;;0.10;;
59858;SDS011;45734;53.648;9.566;2023-03-01T06:34:35;0.10;;;0.10;;
59858;SDS011;45734;53.648;9.566;2023-03-01T06:39:35;0.20;;;0.20;;
59858;SDS011;45734;53.648;9.566;2023-03-01T06:44:37;0.10;;;0.10;;
59858;SDS011;45734;53.648;9.566;2023-03-01T06:49:37;0.13;;;0.13;;
59858;SDS011;45734;53.648;9.566;2023-03-01T06:54:38;0.17;;;0.17;;
59858;SDS011;45734;53.648;9.566;2023-03-01T06:59:38;0.10;;;0.10;;
59858;SDS011;45734;53.648;9.566;2023-03-01T07:04:39;0.00;;;0.00;;
59858;SDS011;45734;53.648;9.566;2023-03-01T07:09:39;0.00;;;0.00;;
59858;SDS011;45734;53.648;9.566;2023-03-01T07:14:39;0.10;;;0.10;;
59858;SDS011;45734;53.648;9.566;2023-03-01T07:19:40;0.10;;;0.10;;
59858;SDS011;45734;53.648;9.566;2023-03-01T07:24:40;0.10;;;0.10;;
59858;SDS011;45734;53.648;9.566;2023-03-01T07:29:41;0.00;;;0.00;;
59858;SDS011;45734;53.648;9.566;2023-03-01T07:34:41;0.03;;;0.03;;
59858;SDS011;45734;53.648;9.566;2023-03-01T07:39:42;0.00;;;0.00;;
59858;SDS011;45734;53.648;9.566;2023-03-01T07:44:42;0.13;;;0.13;;
59858;SDS011;45734;53.648;9.566;2023-03-01T07:49:42;0.00;;;0.00;;
59858;SDS011;45734;53.648;9.566;2023-03-01T07:54:43;0.10;;;0.10;;
59858;SDS011;45734;53.648;9.566;2023-03-01T07:59:46;0.10;;;0.10;;
59858;SDS011;45734;53.648;9.566;2023-03-01T08:04:46;0.00;;;0.00;;
59858;SDS011;45734;53.648;9.566;2023-03-01T08:09:47;0.10;;;0.10;;
59858;SDS011;45734;53.648;9.566;2023-03-01T08:14:47;0.00;;;0.00;;
59858;SDS011;45734;53.648;9.566;2023-03-01T08:19:47;0.10;;;0.10;;
59858;SDS011;45734;53.648;9.566;2023-03-01T08:24:48;0.10;;;0.10;;
59858;SDS011;45734;53.648;9.566;2023-03-01T08:29:48;0.00;;;0.00;;
59858;SDS011;45734;53.648;9.566;2023-03-01T08:34:49;0.03;;;0.03;;
59858;SDS011;45734;53.648;9.566;2023-03-01T08:39:49;0.00;;;0.00;;
59858;SDS011;45734;53.648;9.566;2023-03-01T08:44:49;0.00;;;0.00;;
59858;SDS011;45734;53.648;9.566;2023-03-01T08:49:50;0.00;;;0.00;;
59858;SDS011;45734;53.648;9.566;2023-03-01T08:54:50;0.00;;;0.00;;
59858;SDS011;45734;53.648;9.566;2023-03-01T08:59:51;0.00;;;0.00;;
59858;SDS011;45734;53.648;9.566;2023-03-01T09:04:51;0.00;;;0.00;;
59858;SDS011;45734;53.648;9.566;2023-03-01T09:09:51;0.00;;;0.00;;
59858;SDS011;45734;53.648;9.566;2023-03-01T09:14:53;0.10;;;0.10;;
59858;SDS011;45734;53.648;9.566;2023-03-01T09:19:53;0.00;;;0.00;;
59858;SDS011;45734;53.648;9.566;2023-03-01T09:24:53;0.00;;;0.00;;
59858;SDS011;45734;53.648;9.566;2023-03-01T09:29:54;0.00;;;0.00;;
59858;SDS011;45734;53.648;9.566;2023-03-01T09:34:56;0.00;;;0.00;;
59858;SDS011;45734;53.648;9.566;2023-03-01T09:40:05;0.00;;;0.00;;
59858;SDS011;45734;53.648;9.566;2023-03-01T09:45:11;0.00;;;0.00;;
59858;SDS011;45734;53.648;9.566;2023-03-01T09:50:21;0.00;;;0.00;;
59858;SDS011;45734;53.648;9.566;2023-03-01T09:55:33;0.00;;;0.00;;
59858;SDS011;45734;53.648;9.566;2023-03-01T10:00:44;0.00;;;0.00;;
59858;SDS011;45734;53.648;9.566;2023-03-01T10:11:24;0.00;;;0.00;;
59858;SDS011;45734;53.648;9.566;2023-03-01T10:16:36;0.00;;;0.00;;
59858;SDS011;45734;53.648;9.566;2023-03-01T10:21:43;0.00;;;0.00;;
59858;SDS011;45734;53.648;9.566;2023-03-01T10:31:57;0.00;;;0.00;;
59858;SDS011;45734;53.648;9.566;2023-03-01T10:37:19;0.00;;;0.00;;
59858;SDS011;45734;53.648;9.566;2023-03-01T10:42:32;0.00;;;0.00;;
59858;SDS011;45734;53.648;9.566;2023-03-01T10:47:34;0.00;;;0.00;;
59858;SDS011;45734;53.648;9.566;2023-03-01T10:52:35;0.00;;;0.00;;
59858;SDS011;45734;53.648;9.566;2023-03-01T10:57:41;0.00;;;0.00;;
59858;SDS011;45734;53.648;9.566;2023-03-01T11:02:42;0.00;;;0.00;;
59858;SDS011;45734;53.648;9.566;2023-03-01T11:07:49;0.00;;;0.00;;
59858;SDS011;45734;53.648;9.566;2023-03-01T11:13:15;0.10;;;0.10;;
59858;SDS011;45734;53.648;9.566;2023-03-01T11:18:21;0.00;;;0.00;;
59858;SDS011;45734;53.648;9.566;2023-03-01T11:23:22;0.00;;;0.00;;
59858;SDS011;45734;53.648;9.566;2023-03-01T11:28:23;0.00;;;0.00;;
59858;SDS011;45734;53.648;9.566;2023-03-01T11:33:34;0.00;;;0.00;;
59858;SDS011;45734;53.648;9.566;2023-03-01T11:38:44;0.00;;;0.00;;
59858;SDS011;45734;53.648;9.566;2023-03-01T12:10:48;0.00;;;0.00;;
59858;SDS011;45734;53.648;9.566;2023-03-01T12:21:28;0.00;;;0.00;;
59858;SDS011;45734;53.648;9.566;2023-03-01T12:37:54;0.00;;;0.00;;
59858;SDS011;45734;53.648;9.566;2023-03-01T12:43:17;0.00;;;0.00;;
59858;SDS011;45734;53.648;9.566;2023-03-01T12:48:40;0.00;;;0.00;;
59858;SDS011;45734;53.648;9.566;2023-03-01T12:53:47;0.00;;;0.00;;
59858;SDS011;45734;53.648;9.566;2023-03-01T13:04:02;0.10;;;0.10;;
59858;SDS011;45734;53.648;9.566;2023-03-01T13:15:01;0.00;;;0.00;;
59858;SDS011;45734;53.648;9.566;2023-03-01T13:20:02;0.00;;;0.00;;
59858;SDS011;45734;53.648;9.566;2023-03-01T13:25:17;0.00;;;0.00;;
59858;SDS011;45734;53.648;9.566;2023-03-01T13:35:41;0.00;;;0.00;;
59858;SDS011;45734;53.648;9.566;2023-03-01T13:45:49;0.00;;;0.00;;
59858;SDS011;45734;53.648;9.566;2023-03-01T13:50:58;0.00;;;0.00;;
59858;SDS011;45734;53.648;9.566;2023-03-01T13:56:09;0.00;;;0.00;;
59858;SDS011;45734;53.648;9.566;2023-03-01T14:01:20;0.00;;;0.00;;
59858;SDS011;45734;53.648;9.566;2023-03-01T14:06:26;0.00;;;0.00;;
59858;SDS011;45734;53.648;9.566;2023-03-01T14:16:52;0.00;;;0.00;;
59858;SDS011;45734;53.648;9.566;2023-03-01T14:22:21;0.00;;;0.00;;
59858;SDS011;45734;53.648;9.566;2023-03-01T14:27:32;0.00;;;0.00;;
59858;SDS011;45734;53.648;9.566;2023-03-01T14:32:39;0.00;;;0.00;;
59858;SDS011;45734;53.648;9.566;2023-03-01T14:37:39;0.00;;;0.00;;
59858;SDS011;45734;53.648;9.566;2023-03-01T14:42:40;0.00;;;0.00;;
59858;SDS011;45734;53.648;9.566;2023-03-01T14:47:40;0.00;;;0.00;;
59858;SDS011;45734;53.648;9.566;2023-03-01T14:52:41;0.00;;;0.00;;
59858;SDS011;45734;53.648;9.566;2023-03-01T14:57:46;0.00;;;0.00;;
59858;SDS011;45734;53.648;9.566;2023-03-01T15:02:48;0.00;;;0.00;;
59858;SDS011;45734;53.648;9.566;2023-03-01T15:07:51;0.00;;;0.00;;
59858;SDS011;45734;53.648;9.566;2023-03-01T15:12:52;0.00;;;0.00;;
59858;SDS011;45734;53.648;9.566;2023-03-01T15:17:54;0.00;;;0.00;;
59858;SDS011;45734;53.648;9.566;2023-03-01T15:22:57;0.00;;;0.00;;
59858;SDS011;45734;53.648;9.566;2023-03-01T15:27:58;0.00;;;0.00;;
59858;SDS011;45734;53.648;9.566;2023-03-01T15:43:54;0.00;;;0.00;;
59858;SDS011;45734;53.648;9.566;2023-03-01T15:48:57;0.00;;;0.00;;
59858;SDS011;45734;53.648;9.566;2023-03-01T15:54:00;0.00;;;0.00;;
59858;SDS011;45734;53.648;9.566;2023-03-01T15:59:03;0.00;;;0.00;;
59858;SDS011;45734;53.648;9.566;2023-03-01T16:04:04;0.00;;;0.00;;
59858;SDS011;45734;53.648;9.566;2023-03-01T16:09:05;0.00;;;0.00;;
59858;SDS011;45734;53.648;9.566;2023-03-01T16:14:05;0.00;;;0.00;;
59858;SDS011;45734;53.648;9.566;2023-03-01T16:19:05;0.00;;;0.00;;
59858;SDS011;45734;53.648;9.566;2023-03-01T16:24:05;0.00;;;0.00;;
59858;SDS011;45734;53.648;9.566;2023-03-01T16:29:06;0.00;;;0.00;;
59858;SDS011;45734;53.648;9.566;2023-03-01T16:34:06;0.00;;;0.00;;
59858;SDS011;45734;53.648;9.566;2023-03-01T16:39:08;0.00;;;0.00;;
59858;SDS011;45734;53.648;9.566;2023-03-01T16:44:09;0.00;;;0.00;;
59858;SDS011;45734;53.648;9.566;2023-03-01T16:49:09;0.00;;;0.00;;
59858;SDS011;45734;53.648;9.566;2023-03-01T16:54:09;0.00;;;0.00;;
59858;SDS011;45734;53.648;9.566;2023-03-01T16:59:10;0.00;;;0.00;;
59858;SDS011;45734;53.648;9.566;2023-03-01T17:04:11;0.00;;;0.00;;
59858;SDS011;45734;53.648;9.566;2023-03-01T17:09:12;0.00;;;0.00;;
59858;SDS011;45734;53.648;9.566;2023-03-01T17:14:12;0.00;;;0.00;;
59858;SDS011;45734;53.648;9.566;2023-03-01T17:19:12;0.00;;;0.00;;
59858;SDS011;45734;53.648;9.566;2023-03-01T17:24:17;0.10;;;0.10;;
59858;SDS011;45734;53.648;9.566;2023-03-01T17:29:18;0.00;;;0.00;;
59858;SDS011;45734;53.648;9.566;2023-03-01T17:34:18;0.03;;;0.03;;
59858;SDS011;45734;53.648;9.566;2023-03-01T17:39:19;0.00;;;0.00;;
59858;SDS011;45734;53.648;9.566;2023-03-01T17:44:24;0.00;;;0.00;;
59858;SDS011;45734;53.648;9.566;2023-03-01T17:49:25;0.00;;;0.00;;
59858;SDS011;45734;53.648;9.566;2023-03-01T17:54:25;0.00;;;0.00;;
59858;SDS011;45734;53.648;9.566;2023-03-01T17:59:26;0.00;;;0.00;;
59858;SDS011;45734;53.648;9.566;2023-03-01T18:04:30;0.00;;;0.00;;
59858;SDS011;45734;53.648;9.566;2023-03-01T18:09:31;0.00;;;0.00;;
59858;SDS011;45734;53.648;9.566;2023-03-01T18:14:31;0.00;;;0.00;;
59858;SDS011;45734;53.648;9.566;2023-03-01T18:19:32;0.00;;;0.00;;
59858;SDS011;45734;53.648;9.566;2023-03-01T18:24:33;0.00;;;0.00;;
59858;SDS011;45734;53.648;9.566;2023-03-01T18:29:37;0.00;;;0.00;;
59858;SDS011;45734;53.648;9.566;2023-03-01T18:34:37;0.00;;;0.00;;
59858;SDS011;45734;53.648;9.566;2023-03-01T18:39:38;0.00;;;0.00;;
59858;SDS011;45734;53.648;9.566;2023-03-01T18:44:40;0.00;;;0.00;;
59858;SDS011;45734;53.648;9.566;2023-03-01T18:49:40;0.10;;;0.10;;
59858;SDS011;45734;53.648;9.566;2023-03-01T18:54:41;0.03;;;0.03;;
59858;SDS011;45734;53.648;9.566;2023-03-01T18:59:41;0.00;;;0.00;;
59858;SDS011;45734;53.648;9.566;2023-03-01T19:04:41;0.10;;;0.10;;
59858;SDS011;45734;53.648;9.566;2023-03-01T19:09:42;0.00;;;0.00;;
59858;SDS011;45734;53.648;9.566;2023-03-01T19:14:42;0.00;;;0.00;;
59858;SDS011;45734;53.648;9.566;2023-03-01T19:19:42;0.10;;;0.10;;
59858;SDS011;45734;53.648;9.566;2023-03-01T19:24:42;0.05;;;0.05;;
59858;SDS011;45734;53.648;9.566;2023-03-01T19:29:43;0.10;;;0.10;;
59858;SDS011;45734;53.648;9.566;2023-03-01T19:34:43;0.08;;;0.08;;
59858;SDS011;45734;53.648;9.566;2023-03-01T19:39:45;0.00;;;0.00;;
59858;SDS011;45734;53.648;9.566;2023-03-01T19:44:47;0.00;;;0.00;;
59858;SDS011;45734;53.648;9.566;2023-03-01T19:49:47;0.00;;;0.00;;
59858;SDS011;45734;53.648;9.566;2023-03-01T19:54:47;0.00;;;0.00;;
59858;SDS011;45734;53.648;9.566;2023-03-01T19:59:47;0.00;;;0.00;;
59858;SDS011;45734;53.648;9.566;2023-03-01T20:04:48;0.00;;;0.00;;
59858;SDS011;45734;53.648;9.566;2023-03-01T20:09:48;0.00;;;0.00;;
59858;SDS011;45734;53.648;9.566;2023-03-01T20:14:48;0.00;;;0.00;;
59858;SDS011;45734;53.648;9.566;2023-03-01T20:19:50;0.00;;;0.00;;
59858;SDS011;45734;53.648;9.566;2023-03-01T20:24:50;0.00;;;0.00;;
59858;SDS011;45734;53.648;9.566;2023-03-01T20:29:50;0.00;;;0.00;;
59858;SDS011;45734;53.648;9.566;2023-03-01T20:34:51;0.00;;;0.00;;
59858;SDS011;45734;53.648;9.566;2023-03-01T20:39:53;0.00;;;0.00;;
59858;SDS011;45734;53.648;9.566;2023-03-01T20:44:54;0.00;;;0.00;;
59858;SDS011;45734;53.648;9.566;2023-03-01T20:49:54;0.00;;;0.00;;
59858;SDS011;45734;53.648;9.566;2023-03-01T20:54:57;0.00;;;0.00;;
59858;SDS011;45734;53.648;9.566;2023-03-01T20:59:58;0.10;;;0.10;;
59858;SDS011;45734;53.648;9.566;2023-03-01T21:04:58;0.00;;;0.00;;
59858;SDS011;45734;53.648;9.566;2023-03-01T21:09:59;0.10;;;0.10;;
59858;SDS011;45734;53.648;9.566;2023-03-01T21:14:59;0.10;;;0.10;;
59858;SDS011;45734;53.648;9.566;2023-03-01T21:19:59;0.10;;;0.10;;
59858;SDS011;45734;53.648;9.566;2023-03-01T21:25:00;0.00;;;0.00;;
59858;SDS011;45734;53.648;9.566;2023-03-01T21:30:01;0.10;;;0.10;;
59858;SDS011;45734;53.648;9.566;2023-03-01T21:35:01;0.00;;;0.00;;
59858;SDS011;45734;53.648;9.566;2023-03-01T21:40:01;0.10;;;0.10;;
59858;SDS011;45734;53.648;9.566;2023-03-01T21:45:03;0.00;;;0.00;;
59858;SDS011;45734;53.648;9.566;2023-03-01T21:50:04;0.00;;;0.00;;
59858;SDS011;45734;53.648;9.566;2023-03-01T21:55:07;0.08;;;0.08;;
59858;SDS011;45734;53.648;9.566;2023-03-01T22:00:09;0.00;;;0.00;;
59858;SDS011;45734;53.648;9.566;2023-03-01T22:05:11;0.00;;;0.00;;
59858;SDS011;45734;53.648;9.566;2023-03-01T22:10:12;0.00;;;0.00;;
59858;SDS011;45734;53.648;9.566;2023-03-01T22:15:12;0.05;;;0.05;;
59858;SDS011;45734;53.648;9.566;2023-03-01T22:20:12;0.10;;;0.10;;
59858;SDS011;45734;53.648;9.566;2023-03-01T22:25:13;0.00;;;0.00;;
59858;SDS011;45734;53.648;9.566;2023-03-01T22:30:13;0.10;;;0.10;;
59858;SDS011;45734;53.648;9.566;2023-03-01T22:35:14;0.00;;;0.00;;
59858;SDS011;45734;53.648;9.566;2023-03-01T22:40:14;0.00;;;0.00;;
59858;SDS011;45734;53.648;9.566;2023-03-01T22:45:15;0.10;;;0.10;;
59858;SDS011;45734;53.648;9.566;2023-03-01T22:50:15;0.00;;;0.00;;
59858;SDS011;45734;53.648;9.566;2023-03-01T22:55:15;0.00;;;0.00;;
59858;SDS011;45734;53.648;9.566;2023-03-01T23:00:16;0.10;;;0.10;;
59858;SDS011;45734;53.648;9.566;2023-03-01T23:05:17;0.00;;;0.00;;
59858;SDS011;45734;53.648;9.566;2023-03-01T23:10:17;0.10;;;0.10;;
59858;SDS011;45734;53.648;9.566;2023-03-01T23:15:18;0.00;;;0.00;;
59858;SDS011;45734;53.648;9.566;2023-03-01T23:20:18;0.10;;;0.10;;
59858;SDS011;45734;53.648;9.566;2023-03-01T23:25:18;0.10;;;0.10;;
59858;SDS011;45734;53.648;9.566;2023-03-01T23:30:19;0.10;;;0.10;;
59858;SDS011;45734;53.648;9.566;2023-03-01T23:35:19;0.00;;;0.00;;
59858;SDS011;45734;53.648;9.566;2023-03-01T23:40:19;0.00;;;0.00;;
59858;SDS011;45734;53.648;9.566;2023-03-01T23:45:19;0.00;;;0.00;;
59858;SDS011;45734;53.648;9.566;2023-03-01T23:50:20;0.10;;;0.10;;
59858;SDS011;45734;53.648;9.566;2023-03-01T23:55:20;0.00;;;0.00;;
